Time;durP1;ratioP1;P1;durP2;ratioP2;P2;SDS_P1;SDS_P2;PMS_P1;PMS_P2;Temp;Humidity;BMP_temperature;BMP_pressure;BME280_temperature;BME280_humidity;BME280_pressure;Samples;Min_cycle;Max_cycle;Signal;HPM_P1;HPM_P2
2023/04/23 00:04:17;;;;;;;4.80;2.88;;;;;;;12.29;91.73;100334.50;10332396;28;20038;-72
2023/04/23 00:09:19;;;;;;;3.83;2.42;;;;;;;12.64;91.64;100409.44;10339022;28;20042;-73
2023/04/23 00:14:20;;;;;;;5.32;2.78;;;;;;;12.57;91.65;100411.19;10338391;28;20045;-72
2023/04/23 00:19:21;;;;;;;6.95;2.97;;;;;;;12.46;91.87;100416.94;10338171;28;20050;-73
2023/04/23 00:24:22;;;;;;;6.32;2.97;;;;;;;12.13;91.46;100357.75;10338892;28;20042;-72
2023/04/23 00:29:23;;;;;;;8.25;3.97;;;;;;;12.61;91.71;100431.13;10337641;28;20046;-73
2023/04/23 00:34:23;;;;;;;8.02;4.10;;;;;;;12.08;91.04;100327.16;10337431;28;20053;-73
2023/04/23 00:39:24;;;;;;;7.68;3.50;;;;;;;12.71;91.09;100426.41;10337851;28;20050;-73
2023/04/23 00:44:25;;;;;;;9.25;3.33;;;;;;;12.71;90.92;100436.19;10337694;28;20062;-73
2023/04/23 00:49:27;;;;;;;4.15;2.60;;;;;;;11.82;90.97;100310.69;10337286;28;20480;-73
2023/04/23 00:54:27;;;;;;;3.67;2.20;;;;;;;12.61;90.43;100438.31;10337266;28;20411;-73
2023/04/23 00:59:30;;;;;;;5.15;2.30;;;;;;;12.45;89.67;100425.94;10336497;28;20042;-72
2023/04/23 01:04:32;;;;;;;4.43;1.90;;;;;;;12.50;89.59;100442.19;10336739;28;20038;-73
2023/04/23 01:09:33;;;;;;;4.28;2.03;;;;;;;12.46;89.15;100443.56;10336707;28;20043;-72
2023/04/23 01:14:34;;;;;;;3.35;1.55;;;;;;;12.08;89.07;100382.22;10336214;28;20069;-72
2023/04/23 01:19:35;;;;;;;6.22;1.98;;;;;;;12.44;88.28;100450.91;10335159;28;20440;-73
2023/04/23 01:24:37;;;;;;;6.30;1.70;;;;;;;12.30;88.07;100444.53;10335624;28;20406;-73
2023/04/23 01:29:38;;;;;;;5.50;1.90;;;;;;;12.17;88.13;100439.75;10336317;28;20040;-73
2023/04/23 01:34:40;;;;;;;3.60;1.50;;;;;;;12.24;88.00;100456.72;10335748;28;20040;-72
2023/04/23 01:39:41;;;;;;;3.88;1.35;;;;;;;12.16;88.19;100470.06;10334908;28;20042;-73
2023/04/23 01:44:42;;;;;;;2.95;1.40;;;;;;;12.01;87.52;100439.88;10334917;28;20481;-72
2023/04/23 01:49:43;;;;;;;4.18;1.60;;;;;;;11.69;87.60;100387.59;10334940;28;20053;-73
2023/04/23 01:54:44;;;;;;;2.83;1.25;;;;;;;12.12;87.37;100443.97;10334373;28;20042;-73
2023/04/23 01:59:44;;;;;;;6.57;2.17;;;;;;;12.21;87.23;100457.06;10334776;28;20046;-73
2023/04/23 02:04:47;;;;;;;5.93;1.83;;;;;;;12.24;86.71;100467.38;10334185;28;20110;-73
2023/04/23 02:09:48;;;;;;;4.85;1.70;;;;;;;11.27;86.74;100333.75;10335251;28;20046;-73
2023/04/23 02:14:49;;;;;;;4.32;1.50;;;;;;;12.03;87.50;100489.28;10334712;28;20034;-73
2023/04/23 02:19:50;;;;;;;4.13;1.70;;;;;;;11.84;87.83;100479.81;10334130;28;20050;-73
2023/04/23 02:24:52;;;;;;;5.43;1.73;;;;;;;11.99;88.03;100511.09;10333363;28;20038;-73
2023/04/23 02:29:53;;;;;;;4.40;1.80;;;;;;;11.93;87.31;100487.81;10333207;28;20038;-73
2023/04/23 02:34:54;;;;;;;4.43;1.50;;;;;;;11.63;86.99;100456.47;10332903;28;20042;-73
2023/04/23 02:39:55;;;;;;;3.42;1.50;;;;;;;11.80;86.53;100489.19;10333560;28;20046;-73
2023/04/23 02:44:55;;;;;;;17.95;1.90;;;;;;;11.54;86.09;100427.41;10332264;28;20062;-72
2023/04/23 02:49:57;;;;;;;2.58;1.40;;;;;;;11.63;85.49;100443.16;10332346;28;20529;-72
2023/04/23 02:55:00;;;;;;;6.28;1.58;;;;;;;12.05;84.75;100515.72;10333199;28;20046;-72
2023/04/23 03:00:05;;;;;;;4.77;1.53;;;;;;;12.07;84.08;100511.06;10331928;28;20124;-73
2023/04/23 03:05:07;;;;;;;3.78;1.40;;;;;;;11.92;84.30;100475.53;10332748;28;20864;-72
2023/04/23 03:10:08;;;;;;;6.43;1.90;;;;;;;11.73;84.01;100432.34;10331755;28;20141;-73
2023/04/23 03:15:10;;;;;;;5.45;1.48;;;;;;;12.49;83.23;100542.63;10331804;28;20050;-73
2023/04/23 03:20:11;;;;;;;9.90;1.83;;;;;;;12.03;82.25;100440.53;10331894;28;20043;-72
2023/04/23 03:25:12;;;;;;;9.43;1.90;;;;;;;12.76;81.52;100530.63;10331098;28;20034;-72
2023/04/23 03:30:13;;;;;;;6.47;2.00;;;;;;;12.81;80.90;100516.78;10331350;28;20046;-72
2023/04/23 03:35:13;;;;;;;4.95;1.90;;;;;;;13.06;79.64;100541.41;10331022;28;20034;-72
2023/04/23 03:40:14;;;;;;;9.18;2.47;;;;;;;13.24;78.13;100539.25;10335280;28;20046;-72
2023/04/23 03:45:15;;;;;;;7.50;2.10;;;;;;;13.11;77.23;100523.03;10339982;28;20129;-72
2023/04/23 03:50:16;;;;;;;5.13;1.58;;;;;;;13.27;75.82;100562.09;10339838;28;20125;-73
2023/04/23 03:55:17;;;;;;;5.28;1.67;;;;;;;13.32;75.58;100580.25;10339453;28;20137;-73
2023/04/23 04:00:18;;;;;;;4.90;1.42;;;;;;;13.20;75.48;100577.97;10340539;28;20509;-72
2023/04/23 04:05:19;;;;;;;3.17;1.33;;;;;;;13.26;75.65;100594.31;10338629;28;20042;-73
2023/04/23 04:10:20;;;;;;;7.72;1.60;;;;;;;13.20;75.43;100579.81;10338330;28;20043;-72
2023/04/23 04:15:20;;;;;;;6.63;3.90;;;;;;;13.30;74.57;100577.75;10338113;28;20034;-72
2023/04/23 04:20:21;;;;;;;5.78;1.90;;;;;;;13.32;73.98;100594.41;10338878;28;20042;-72
2023/04/23 04:25:23;;;;;;;5.72;1.60;;;;;;;13.26;74.58;100596.97;10338446;28;20042;-72
2023/04/23 04:30:25;;;;;;;6.80;1.70;;;;;;;12.81;73.51;100535.44;10337730;28;20137;-72
2023/04/23 04:35:26;;;;;;;4.45;1.50;;;;;;;13.07;73.04;100572.38;10337891;28;20495;-72
2023/04/23 04:40:27;;;;;;;9.45;1.52;;;;;;;13.27;72.03;100595.94;10322794;28;20050;-72
2023/04/23 04:45:28;;;;;;;4.75;1.45;;;;;;;13.32;71.23;100609.59;10296917;28;20074;-72
2023/04/23 04:50:29;;;;;;;4.40;1.40;;;;;;;13.39;71.70;100626.53;10295888;28;20049;-72
2023/04/23 04:55:30;;;;;;;7.18;1.73;;;;;;;12.94;72.28;100558.84;10296306;28;20109;-72
2023/04/23 05:00:31;;;;;;;5.63;1.65;;;;;;;13.30;71.45;100635.63;10297761;28;20090;-72
2023/04/23 05:05:32;;;;;;;4.55;1.42;;;;;;;13.37;72.29;100647.22;10296890;28;20256;-72
2023/04/23 05:10:33;;;;;;;7.18;1.25;;;;;;;12.98;73.00;100581.47;10309108;28;20129;-72
2023/04/23 05:15:34;;;;;;;4.13;1.55;;;;;;;12.64;72.99;100517.91;10332450;28;20137;-72
2023/04/23 05:20:35;;;;;;;5.75;1.73;;;;;;;12.98;72.20;100563.66;10295404;28;20043;-72
2023/04/23 05:25:36;;;;;;;11.68;1.60;;;;;;;13.45;71.86;100641.81;10296376;28;20411;-72
2023/04/23 05:30:37;;;;;;;3.05;1.40;;;;;;;13.31;70.74;100607.91;10326290;28;20046;-72
2023/04/23 05:35:37;;;;;;;6.25;1.50;;;;;;;13.50;69.73;100634.13;10335236;28;20097;-72
2023/04/23 05:40:38;;;;;;;4.63;1.52;;;;;;;13.62;69.18;100635.34;10335482;28;20514;-72
2023/04/23 05:45:39;;;;;;;4.65;1.42;;;;;;;13.67;68.72;100656.13;10334794;28;20054;-72
2023/04/23 05:50:40;;;;;;;5.88;1.23;;;;;;;13.89;69.99;100670.47;10334582;28;20486;-72
2023/04/23 05:55:41;;;;;;;4.07;1.40;;;;;;;13.73;69.26;100652.78;10332837;28;20426;-73
2023/04/23 06:00:42;;;;;;;4.05;1.80;;;;;;;13.52;68.06;100621.44;10333476;28;20072;-72
2023/04/23 06:05:42;;;;;;;4.50;1.42;;;;;;;13.56;67.87;100609.38;10331680;28;20042;-74
2023/04/23 06:10:43;;;;;;;4.47;1.33;;;;;;;14.08;67.26;100679.78;10332922;28;20120;-74
2023/04/23 06:15:44;;;;;;;4.57;1.50;;;;;;;14.11;66.46;100674.09;10330823;28;20042;-73
2023/04/23 06:20:46;;;;;;;4.00;1.55;;;;;;;14.14;66.27;100653.19;10333527;28;20910;-71
2023/04/23 06:25:46;;;;;;;12.25;2.38;;;;;;;14.52;66.34;100676.34;10333485;28;20051;-71
2023/04/23 06:30:47;;;;;;;5.75;1.80;;;;;;;14.38;65.54;100656.59;10333985;28;20043;-73
2023/04/23 06:35:48;;;;;;;13.15;2.33;;;;;;;14.44;65.32;100663.03;10332863;28;20054;-70
2023/04/23 06:40:49;;;;;;;11.70;1.85;;;;;;;14.54;65.03;100677.81;10315740;28;20089;-72
2023/04/23 06:45:50;;;;;;;7.10;2.17;;;;;;;14.36;65.07;100658.63;10332218;28;20051;-72
2023/04/23 06:50:50;;;;;;;10.60;1.80;;;;;;;14.47;64.90;100673.34;10332197;28;20050;-72
2023/04/23 06:55:51;;;;;;;4.03;1.40;;;;;;;14.05;65.31;100598.19;10332633;28;20059;-73
2023/04/23 07:00:52;;;;;;;4.80;1.65;;;;;;;14.05;65.17;100600.03;10332811;28;20060;-72
2023/04/23 07:05:53;;;;;;;4.15;1.40;;;;;;;14.67;64.35;100681.69;10332516;28;20046;-71
2023/04/23 07:10:54;;;;;;;7.88;1.90;;;;;;;14.43;63.78;100608.75;10330773;28;20478;-74
2023/04/23 07:15:55;;;;;;;8.30;2.10;;;;;;;14.63;63.46;100593.00;10327849;28;20046;-71
2023/04/23 07:20:56;;;;;;;15.80;2.75;;;;;;;15.34;63.36;100678.72;10330463;28;20042;-71
2023/04/23 07:25:57;;;;;;;4.30;1.65;;;;;;;15.29;62.99;100667.78;10330188;28;20050;-71
2023/04/23 07:30:57;;;;;;;7.50;1.80;;;;;;;15.52;62.50;100667.56;10330031;28;20038;-73
2023/04/23 07:35:58;;;;;;;5.97;1.90;;;;;;;15.69;62.02;100646.72;10332877;28;20047;-71
2023/04/23 07:40:59;;;;;;;8.77;2.15;;;;;;;15.68;62.28;100647.75;10330286;28;20165;-72
2023/04/23 07:46:00;;;;;;;6.57;2.40;;;;;;;14.89;62.25;100506.03;10330209;28;20573;-73
2023/04/23 07:51:01;;;;;;;8.20;3.72;;;;;;;16.00;61.73;100659.72;10330250;28;20517;-70
2023/04/23 07:56:02;;;;;;;4.97;1.90;;;;;;;15.93;61.77;100643.59;10331214;28;20046;-70
2023/04/23 08:01:03;;;;;;;7.93;1.88;;;;;;;16.09;62.67;100650.50;10330482;28;20046;-70
2023/04/23 08:06:04;;;;;;;6.20;2.10;;;;;;;16.30;61.26;100654.13;10330390;28;20049;-69
2023/04/23 08:11:06;;;;;;;5.00;1.83;;;;;;;16.29;60.62;100647.13;10330202;28;20040;-72
2023/04/23 08:16:06;;;;;;;6.72;1.80;;;;;;;16.56;60.89;100648.09;10331278;28;20034;-71
2023/04/23 08:21:07;;;;;;;9.32;3.00;;;;;;;16.56;59.53;100654.25;10330789;28;20053;-70
2023/04/23 08:26:09;;;;;;;3.90;1.75;;;;;;;16.36;59.92;100653.34;10316022;28;20062;-70
2023/04/23 08:31:09;;;;;;;4.15;2.05;;;;;;;16.28;59.87;100646.31;10338801;28;20077;-70
2023/04/23 08:36:10;;;;;;;6.47;2.75;;;;;;;16.07;60.23;100649.88;10338978;28;20073;-70
2023/04/23 08:41:16;;;;;;;9.15;3.47;;;;;;;15.95;60.18;100646.94;10336563;28;20048;-70
2023/04/23 08:46:18;;;;;;;6.32;2.63;;;;;;;15.88;60.86;100640.69;10336896;28;20069;-70
2023/04/23 08:51:20;;;;;;;6.22;3.50;;;;;;;15.93;60.89;100638.25;10337395;28;20093;-70
2023/04/23 08:56:23;;;;;;;9.05;2.72;;;;;;;15.90;60.57;100616.38;10337037;28;20126;-71
2023/04/23 09:01:24;;;;;;;8.00;4.07;;;;;;;16.47;60.38;100638.56;10334920;28;20069;-71
2023/04/23 09:06:25;;;;;;;12.55;2.80;;;;;;;16.58;59.43;100624.59;10337238;28;20120;-71
2023/04/23 09:11:28;;;;;;;199.43;14.18;;;;;;;16.74;58.74;100626.88;10336147;28;20072;-70
2023/04/23 09:16:29;;;;;;;7.65;4.97;;;;;;;16.78;58.68;100577.22;10336435;28;20104;-70
2023/04/23 09:21:30;;;;;;;8.30;2.20;;;;;;;17.32;57.78;100600.41;10330524;28;20561;-70
2023/04/23 09:26:31;;;;;;;7.43;1.95;;;;;;;17.46;57.76;100603.09;10302929;28;20080;-71
2023/04/23 09:31:32;;;;;;;5.10;1.67;;;;;;;16.74;57.29;100465.94;10335115;28;20133;-70
2023/04/23 09:36:32;;;;;;;4.40;1.70;;;;;;;17.87;56.43;100583.25;10317460;28;20042;-70
2023/04/23 09:41:33;;;;;;;6.03;2.55;;;;;;;17.81;55.41;100586.78;10334995;28;20417;-70
2023/04/23 09:46:40;;;;;;;6.90;2.25;;;;;;;18.11;55.67;100577.19;10334091;28;20054;-72
2023/04/23 09:51:48;;;;;;;2.85;1.55;;;;;;;18.23;55.54;100575.47;10331723;28;20402;-71
2023/04/23 09:56:52;;;;;;;2.80;1.30;;;;;;;17.89;55.19;100581.16;10333409;28;20391;-71
2023/04/23 10:01:54;;;;;;;4.88;1.75;;;;;;;17.88;56.59;100558.84;10333927;28;20133;-71
2023/04/23 10:07:03;;;;;;;4.07;1.60;;;;;;;18.29;56.40;100578.38;10334179;28;20042;-73
2023/04/23 10:12:05;;;;;;;4.00;1.40;;;;;;;18.42;56.02;100573.75;10332551;28;20054;-72
2023/04/23 10:17:08;;;;;;;4.53;1.45;;;;;;;17.88;55.33;100502.41;10312118;28;20072;-72
2023/04/23 10:22:10;;;;;;;5.82;2.00;;;;;;;17.81;55.13;100480.09;10328074;28;20057;-72
2023/04/23 10:27:14;;;;;;;4.88;1.80;;;;;;;17.72;57.07;100498.28;10333010;28;20049;-71
2023/04/23 10:32:16;;;;;;;6.63;1.83;;;;;;;18.13;57.65;100577.81;10316012;28;20049;-71
2023/04/23 10:37:20;;;;;;;4.13;1.70;;;;;;;18.15;56.66;100561.44;10333665;28;20529;-70
2023/04/23 10:42:22;;;;;;;4.45;1.20;;;;;;;17.91;54.83;100571.03;10333421;28;20053;-71
2023/04/23 10:47:23;;;;;;;4.45;1.65;;;;;;;17.58;55.71;100500.16;10302822;28;20078;-71
2023/04/23 10:52:24;;;;;;;5.90;1.42;;;;;;;17.43;55.71;100504.13;10292199;28;20070;-71
2023/04/23 10:57:25;;;;;;;4.95;1.42;;;;;;;17.50;56.33;100559.50;10292006;28;20418;-72
2023/04/23 11:02:43;;;;;;;5.72;1.67;;;;;;;17.14;55.25;100526.88;10315942;28;20050;-71
2023/04/23 11:08:03;;;;;;;4.80;1.42;;;;;;;17.16;57.42;100579.31;10293550;28;20074;-72
2023/04/23 11:13:21;;;;;;;7.75;1.80;;;;;;;17.03;58.46;100545.25;10291710;28;20066;-72
2023/04/23 11:18:23;;;;;;;7.63;1.52;;;;;;;16.95;57.31;100566.09;10291413;28;20050;-72
2023/04/23 11:23:31;;;;;;;3.30;1.40;;;;;;;16.84;58.61;100556.78;10292679;28;20442;-72
2023/04/23 11:28:34;;;;;;;4.07;1.15;;;;;;;17.11;57.35;100571.91;10291382;28;20542;-71
2023/04/23 11:33:37;;;;;;;6.50;1.50;;;;;;;17.37;57.20;100564.06;10291685;28;20049;-71
2023/04/23 11:38:38;;;;;;;5.22;1.30;;;;;;;17.18;57.12;100528.94;10292015;28;20058;-72
2023/04/23 11:43:42;;;;;;;2.88;1.33;;;;;;;17.23;56.87;100515.75;10290965;28;20380;-70
2023/04/23 11:48:43;;;;;;;3.67;1.33;;;;;;;17.28;57.48;100532.03;10315354;28;20050;-70
2023/04/23 11:53:46;;;;;;;3.72;1.27;;;;;;;17.60;57.29;100526.84;10330738;28;20042;-70
2023/04/23 11:58:46;;;;;;;44.43;30.00;;;;;;;17.37;56.37;100459.31;10330686;28;20553;-69
2023/04/23 12:03:48;;;;;;;10.40;5.25;;;;;;;17.79;56.54;100530.53;10338611;28;20050;-70
2023/04/23 12:08:48;;;;;;;13.05;10.25;;;;;;;17.77;56.87;100511.09;10331644;28;20379;-70
2023/04/23 12:13:49;;;;;;;98.35;74.15;;;;;;;17.83;56.15;100533.63;10333400;28;20042;-70
2023/04/23 12:18:53;;;;;;;101.68;67.03;;;;;;;17.75;54.93;100522.06;10336305;28;20046;-70
2023/04/23 12:23:53;;;;;;;11.77;8.30;;;;;;;17.65;56.08;100494.81;10337940;28;20038;-71
2023/04/23 12:28:58;;;;;;;42.13;27.27;;;;;;;17.89;56.14;100535.47;10338016;28;20046;-70
2023/04/23 12:34:04;;;;;;;13.35;7.93;;;;;;;17.85;56.32;100542.31;10338435;28;20042;-71
2023/04/23 12:39:23;;;;;;;13.60;7.47;;;;;;;18.02;56.41;100535.44;10338562;28;20050;-70
2023/04/23 12:44:25;;;;;;;16.17;3.97;;;;;;;17.87;57.08;100522.25;10337667;28;20073;-71
2023/04/23 12:49:26;;;;;;;5.75;2.70;;;;;;;17.81;56.59;100523.09;10332618;28;20490;-71
2023/04/23 12:54:30;;;;;;;4.95;2.55;;;;;;;17.71;56.18;100523.53;10331359;28;20521;-71
2023/04/23 12:59:31;;;;;;;5.63;3.38;;;;;;;17.73;56.19;100537.53;10313648;28;20046;-71
2023/04/23 13:04:33;;;;;;;330.10;215.10;;;;;;;17.77;56.09;100551.41;10329858;28;20509;-71
2023/04/23 13:09:34;;;;;;;392.88;305.75;;;;;;;16.90;56.52;100413.75;10331251;28;20511;-71
2023/04/23 13:14:35;;;;;;;81.15;53.38;;;;;;;17.62;56.95;100546.28;10330070;28;20034;-71
2023/04/23 13:19:38;;;;;;;22.83;16.50;;;;;;;17.36;57.94;100487.22;10331218;28;20038;-71
2023/04/23 13:24:39;;;;;;;9.88;4.97;;;;;;;17.77;57.96;100548.72;10330834;28;20125;-72
2023/04/23 13:29:40;;;;;;;13.48;9.80;;;;;;;17.31;58.29;100471.72;10332342;28;20132;-71
2023/04/23 13:34:41;;;;;;;10.27;5.95;;;;;;;17.61;57.76;100552.66;10330680;28;20121;-70
2023/04/23 13:39:42;;;;;;;8.48;3.45;;;;;;;17.00;57.54;100450.91;10330275;28;20042;-70
2023/04/23 13:44:43;;;;;;;15.80;4.57;;;;;;;17.44;57.76;100548.75;10330303;28;20058;-71
2023/04/23 13:49:43;;;;;;;14.80;2.25;;;;;;;17.43;58.13;100531.00;10329563;28;20042;-73
2023/04/23 13:54:46;;;;;;;1247.55;626.65;;;;;;;16.93;58.33;100466.19;10329290;28;20066;-72
2023/04/23 13:59:47;;;;;;;251.90;219.27;;;;;;;16.78;58.70;100471.75;10326638;28;20060;-72
2023/04/23 14:04:48;;;;;;;29.23;23.75;;;;;;;17.10;59.08;100558.66;10330081;28;20072;-72
2023/04/23 14:09:51;;;;;;;10.63;6.05;;;;;;;16.52;59.52;100505.53;10333400;28;20034;-73
2023/04/23 14:14:52;;;;;;;4.93;3.25;;;;;;;16.60;59.74;100537.53;10334312;28;20461;-73
2023/04/23 14:19:53;;;;;;;7.38;2.58;;;;;;;16.64;60.05;100559.41;10315302;28;20050;-73
2023/04/23 14:25:01;;;;;;;6.68;1.83;;;;;;;16.67;60.32;100553.63;10333561;28;20057;-72
2023/04/23 14:30:05;;;;;;;3.60;1.70;;;;;;;16.71;60.28;100549.50;10332954;28;20069;-72
2023/04/23 14:35:07;;;;;;;15.65;7.72;;;;;;;16.65;60.34;100545.78;10330318;28;20513;-72
2023/04/23 14:40:08;;;;;;;8.85;3.08;;;;;;;16.68;60.71;100566.00;10314627;28;20050;-72
2023/04/23 14:45:09;;;;;;;6.32;2.40;;;;;;;16.64;61.17;100564.75;10331263;28;20093;-73
2023/04/23 14:50:10;;;;;;;7.85;4.43;;;;;;;15.94;61.58;100464.91;10330675;28;20050;-73
2023/04/23 14:55:11;;;;;;;7.68;2.40;;;;;;;15.92;61.84;100478.53;10331498;28;20412;-72
2023/04/23 15:00:14;;;;;;;10.00;3.70;;;;;;;15.82;62.50;100480.72;10333107;28;20080;-72
2023/04/23 15:05:15;;;;;;;9.55;5.15;;;;;;;16.23;63.33;100549.56;10332579;28;20038;-72
2023/04/23 15:10:16;;;;;;;3.25;1.60;;;;;;;16.03;63.74;100529.88;10331899;28;20042;-72
2023/04/23 15:15:24;;;;;;;5.03;1.63;;;;;;;15.70;64.60;100488.53;10332165;28;20132;-71
2023/04/23 15:20:24;;;;;;;6.97;2.30;;;;;;;16.04;64.22;100544.97;10331453;28;20490;-72
2023/04/23 15:25:25;;;;;;;4.50;1.95;;;;;;;15.14;64.69;100397.56;10331632;28;20042;-72
2023/04/23 15:30:27;;;;;;;9.93;2.03;;;;;;;15.99;64.98;100534.81;10331688;28;20482;-72
2023/04/23 15:35:28;;;;;;;7.70;2.67;;;;;;;16.08;65.03;100543.53;10329125;28;20506;-72
2023/04/23 15:40:29;;;;;;;6.38;2.20;;;;;;;15.59;65.26;100462.28;10312863;28;20062;-72
2023/04/23 15:45:30;;;;;;;4.88;1.95;;;;;;;15.58;65.58;100470.50;10331700;28;20058;-73
2023/04/23 15:50:31;;;;;;;8.85;2.95;;;;;;;15.86;66.14;100527.56;10313168;28;20038;-72
2023/04/23 15:55:32;;;;;;;7.20;2.30;;;;;;;15.91;66.35;100546.53;10330166;28;20046;-72
2023/04/23 16:00:33;;;;;;;8.43;4.10;;;;;;;15.69;65.78;100521.69;10331345;28;20093;-73
2023/04/23 16:05:37;;;;;;;12.43;3.78;;;;;;;15.39;65.82;100475.53;10313051;28;20097;-70
2023/04/23 16:10:38;;;;;;;7.32;3.30;;;;;;;15.78;66.27;100546.44;10328633;28;20049;-73
2023/04/23 16:15:39;;;;;;;6.22;3.00;;;;;;;15.75;66.19;100547.66;10312748;28;20498;-70
2023/04/23 16:20:40;;;;;;;5.13;2.55;;;;;;;15.64;66.05;100536.66;10330387;28;20054;-70
2023/04/23 16:25:41;;;;;;;7.13;3.00;;;;;;;15.70;66.15;100544.78;10330219;28;20073;-71
2023/04/23 16:30:42;;;;;;;10.63;4.05;;;;;;;15.60;66.30;100528.19;10331603;28;20553;-72
2023/04/23 16:35:44;;;;;;;8.18;3.55;;;;;;;14.85;67.28;100409.28;10330480;28;20093;-72
2023/04/23 16:40:46;;;;;;;8.45;3.17;;;;;;;15.65;67.65;100539.13;10330074;28;20549;-71
2023/04/23 16:45:47;;;;;;;9.00;3.33;;;;;;;15.66;68.65;100561.38;10331766;28;20494;-71
2023/04/23 16:50:48;;;;;;;10.45;4.38;;;;;;;15.53;69.62;100557.59;10337745;28;20050;-73
2023/04/23 16:55:49;;;;;;;7.38;3.58;;;;;;;15.51;69.49;100575.69;10334346;28;20116;-71
2023/04/23 17:00:50;;;;;;;11.65;4.28;;;;;;;15.50;69.54;100574.06;10335728;28;20185;-72
2023/04/23 17:05:58;;;;;;;8.25;4.53;;;;;;;15.50;71.26;100579.41;10318526;28;20046;-71
2023/04/23 17:10:59;;;;;;;11.32;4.30;;;;;;;15.48;70.81;100580.63;10335604;28;20049;-71
2023/04/23 17:16:01;;;;;;;16.92;4.93;;;;;;;15.28;71.30;100564.38;10335259;28;20517;-71
2023/04/23 17:21:02;;;;;;;12.07;4.97;;;;;;;15.34;71.69;100578.84;10335755;28;20046;-71
2023/04/23 17:26:03;;;;;;;12.93;6.22;;;;;;;14.81;72.08;100513.16;10335078;28;20046;-73
2023/04/23 17:31:04;;;;;;;11.57;5.53;;;;;;;14.70;72.90;100515.53;10333809;28;20066;-71
2023/04/23 17:36:04;;;;;;;13.98;6.50;;;;;;;14.95;72.81;100545.38;10336069;28;20046;-71
2023/04/23 17:41:05;;;;;;;14.43;6.90;;;;;;;14.22;72.48;100430.50;10334747;28;20042;-73
2023/04/23 17:46:06;;;;;;;18.80;8.85;;;;;;;14.91;72.26;100552.97;10335589;28;20104;-72
2023/04/23 17:51:07;;;;;;;202.25;133.27;;;;;;;14.87;72.25;100561.53;10316714;28;20134;-72
2023/04/23 17:56:08;;;;;;;98.50;63.13;;;;;;;14.95;72.50;100574.78;10332561;28;20042;-72
2023/04/23 18:01:10;;;;;;;42.08;18.75;;;;;;;14.81;73.21;100572.00;10333842;28;20046;-71
2023/04/23 18:06:11;;;;;;;27.05;15.77;;;;;;;14.70;73.35;100566.31;10333227;28;20050;-73
2023/04/23 18:11:12;;;;;;;19.35;9.15;;;;;;;14.63;73.63;100563.59;10333192;28;20217;-73
2023/04/23 18:16:13;;;;;;;15.55;7.03;;;;;;;14.52;73.97;100562.22;10332342;28;20485;-73
2023/04/23 18:21:16;;;;;;;12.60;5.18;;;;;;;14.49;74.00;100554.53;10331626;28;20097;-72
2023/04/23 18:26:17;;;;;;;16.77;6.70;;;;;;;14.49;73.78;100556.41;10333268;28;20074;-71
2023/04/23 18:31:18;;;;;;;13.02;7.68;;;;;;;13.97;74.19;100470.09;10333701;28;20518;-73
2023/04/23 18:36:28;;;;;;;19.38;10.65;;;;;;;14.28;75.12;100530.47;10332757;28;20057;-71
2023/04/23 18:41:29;;;;;;;29.92;11.40;;;;;;;13.68;75.10;100455.75;10333421;28;20084;-71
2023/04/23 18:46:30;;;;;;;15.60;9.23;;;;;;;14.03;75.63;100527.25;10333994;28;20062;-71
2023/04/23 18:51:43;;;;;;;12.32;5.80;;;;;;;13.80;77.21;100520.19;10332462;28;20068;-71
2023/04/23 18:56:44;;;;;;;11.35;4.45;;;;;;;13.35;76.85;100497.16;10332354;28;20035;-72
2023/04/23 19:01:46;;;;;;;8.07;4.43;;;;;;;13.26;77.70;100519.59;10332163;28;20057;-71
2023/04/23 19:06:47;;;;;;;12.68;4.32;;;;;;;13.03;78.00;100497.25;10331952;28;20092;-72
2023/04/23 19:11:48;;;;;;;10.38;3.47;;;;;;;13.06;78.20;100514.72;10314197;28;20035;-72
2023/04/23 19:16:49;;;;;;;4.70;2.22;;;;;;;12.97;77.84;100502.47;10331638;28;20077;-72
2023/04/23 19:21:50;;;;;;;3.20;1.55;;;;;;;13.02;76.44;100521.44;10331631;28;20080;-72
2023/04/23 19:26:51;;;;;;;4.65;1.80;;;;;;;12.72;76.03;100465.34;10331910;28;20058;-72
2023/04/23 19:31:52;;;;;;;3.55;1.58;;;;;;;13.00;74.75;100499.44;10332456;28;20104;-72
2023/04/23 19:36:52;;;;;;;3.35;1.50;;;;;;;12.95;74.20;100485.81;10331817;28;20070;-72
2023/04/23 19:41:53;;;;;;;6.35;2.10;;;;;;;13.08;74.10;100488.72;10331584;28;20080;-72
2023/04/23 19:46:55;;;;;;;4.38;2.53;;;;;;;13.07;74.31;100499.56;10331708;28;20065;-72
2023/04/23 19:51:57;;;;;;;6.50;4.03;;;;;;;13.08;74.50;100507.38;10330028;28;20169;-72
2023/04/23 19:56:58;;;;;;;9.85;4.03;;;;;;;12.94;74.72;100462.84;10330865;28;20039;-72
2023/04/23 20:01:58;;;;;;;6.60;3.45;;;;;;;12.63;74.40;100402.47;10330562;28;20050;-71
2023/04/23 20:06:59;;;;;;;5.57;2.42;;;;;;;12.95;75.12;100467.16;10331218;28;20048;-72
2023/04/23 20:12:01;;;;;;;5.32;2.22;;;;;;;12.80;75.49;100467.13;10330615;28;20042;-72
2023/04/23 20:17:02;;;;;;;4.30;2.15;;;;;;;12.82;75.81;100465.09;10331258;28;20485;-72
2023/04/23 20:22:03;;;;;;;6.68;2.90;;;;;;;12.35;76.17;100378.22;10334218;28;20050;-71
2023/04/23 20:27:05;;;;;;;9.70;2.83;;;;;;;12.86;76.09;100466.41;10320393;28;20038;-73
2023/04/23 20:32:06;;;;;;;10.50;2.60;;;;;;;12.82;76.75;100453.63;10320258;28;20034;-71
2023/04/23 20:37:08;;;;;;;5.65;2.70;;;;;;;12.57;76.92;100413.84;10338403;28;20413;-71
2023/04/23 20:42:10;;;;;;;7.32;2.60;;;;;;;12.92;77.43;100447.03;10337761;28;20046;-71
2023/04/23 20:47:12;;;;;;;4.20;2.30;;;;;;;13.05;77.58;100442.91;10337995;28;20050;-71
2023/04/23 20:52:14;;;;;;;8.07;2.80;;;;;;;13.14;77.16;100433.81;10337638;28;20043;-71
2023/04/23 20:57:15;;;;;;;9.05;4.07;;;;;;;12.84;77.47;100387.63;10337949;28;20394;-71
2023/04/23 21:02:16;;;;;;;9.63;3.00;;;;;;;13.05;77.86;100432.25;10336904;28;20049;-71
2023/04/23 21:07:16;;;;;;;7.10;2.80;;;;;;;12.32;78.15;100309.31;10336503;28;20042;-71
2023/04/23 21:12:17;;;;;;;4.85;2.55;;;;;;;12.97;78.35;100403.81;10338005;28;20097;-71
2023/04/23 21:17:18;;;;;;;4.95;3.03;;;;;;;13.18;78.23;100425.25;10333918;28;20137;-71
2023/04/23 21:22:19;;;;;;;5.30;2.58;;;;;;;13.15;78.51;100412.28;10295990;28;20125;-71
2023/04/23 21:27:20;;;;;;;5.07;2.30;;;;;;;12.66;78.17;100324.00;10295548;28;20043;-71
2023/04/23 21:32:21;;;;;;;4.53;2.60;;;;;;;13.27;78.42;100431.38;10294425;28;20035;-72
2023/04/23 21:37:21;;;;;;;9.02;4.00;;;;;;;13.23;78.94;100420.22;10277792;28;20043;-72
2023/04/23 21:42:22;;;;;;;5.65;2.90;;;;;;;13.18;78.89;100416.44;10295806;28;20121;-72
2023/04/23 21:47:23;;;;;;;4.97;3.13;;;;;;;13.23;78.82;100414.88;10296114;28;20070;-72
2023/04/23 21:52:25;;;;;;;5.13;2.33;;;;;;;12.86;78.82;100350.94;10295711;28;20050;-72
2023/04/23 21:57:26;;;;;;;3.60;2.30;;;;;;;13.21;79.10;100413.41;10295073;28;20088;-71
2023/04/23 22:02:26;;;;;;;3.92;2.28;;;;;;;13.11;79.09;100408.34;10276988;28;20133;-71
2023/04/23 22:07:28;;;;;;;4.03;2.35;;;;;;;13.04;79.49;100388.72;10294716;28;20042;-72
2023/04/23 22:12:29;;;;;;;4.10;2.17;;;;;;;13.14;79.75;100405.31;10293723;28;20065;-72
2023/04/23 22:17:29;;;;;;;4.50;2.50;;;;;;;12.87;80.09;100365.94;10294295;28;20053;-72
2023/04/23 22:22:34;;;;;;;3.40;2.38;;;;;;;13.02;80.48;100393.44;10276046;28;20526;-72
2023/04/23 22:27:37;;;;;;;4.10;2.50;;;;;;;13.14;80.66;100412.50;10293711;28;20046;-72
2023/04/23 22:32:39;;;;;;;6.72;2.80;;;;;;;13.12;80.73;100415.31;10294035;28;20045;-72
2023/04/23 22:37:40;;;;;;;4.47;2.50;;;;;;;13.12;80.47;100398.50;10293510;28;20046;-71
2023/04/23 22:42:41;;;;;;;3.60;2.30;;;;;;;12.64;81.28;100318.00;10292684;28;20057;-72
2023/04/23 22:47:42;;;;;;;5.80;2.30;;;;;;;12.92;81.84;100363.53;10292383;28;20120;-71
2023/04/23 22:52:43;;;;;;;5.25;2.50;;;;;;;12.92;82.23;100374.19;10292845;28;20055;-72
2023/04/23 22:57:44;;;;;;;6.72;2.60;;;;;;;12.64;82.17;100318.00;10292520;28;20046;-72
2023/04/23 23:02:45;;;;;;;4.05;2.60;;;;;;;12.71;82.35;100326.94;10291785;28;20046;-72